Time;durP1;ratioP1;P1;durP2;ratioP2;P2;SDS_P1;SDS_P2;PMS_P1;PMS_P2;Temp;Humidity;BMP_temperature;BMP_pressure;BME280_temperature;BME280_humidity;BME280_pressure;Samples;Min_cycle;Max_cycle;Signal;HPM_P1;HPM_P2
2022/10/29 00:00:07;;;;;;;11.15;4.85;;;;;;;16.94;99.70;101478.00;5039488;28;20240;-51
2022/10/29 00:02:34;;;;;;;9.07;3.53;;;;;;;16.94;99.71;101485.94;5040749;28;20710;-54
2022/10/29 00:05:01;;;;;;;9.10;4.78;;;;;;;16.93;100.00;101492.16;5045329;28;20330;-52
2022/10/29 00:07:27;;;;;;;6.35;3.92;;;;;;;16.93;99.96;101486.00;5035931;28;20305;-52
2022/10/29 00:09:54;;;;;;;6.07;4.32;;;;;;;16.88;100.00;101490.47;5045330;28;20232;-52
2022/10/29 00:12:20;;;;;;;6.22;3.83;;;;;;;16.86;100.00;101497.59;5040854;28;20239;-52
2022/10/29 00:14:48;;;;;;;7.38;4.05;;;;;;;16.84;100.00;101494.06;5044036;28;20251;-52
2022/10/29 00:17:15;;;;;;;15.30;3.97;;;;;;;16.85;100.00;101488.75;5039599;28;20235;-52
2022/10/29 00:19:41;;;;;;;13.30;4.38;;;;;;;16.83;100.00;101484.38;5035217;28;20236;-52
2022/10/29 00:22:08;;;;;;;17.23;5.28;;;;;;;16.88;100.00;101487.81;5031873;28;20312;-52
2022/10/29 00:24:35;;;;;;;16.45;4.63;;;;;;;16.84;100.00;101496.72;5035140;28;20273;-53
2022/10/29 00:27:01;;;;;;;15.82;4.70;;;;;;;16.83;100.00;101493.19;5044304;28;20790;-50
2022/10/29 00:29:28;;;;;;;7.45;4.25;;;;;;;16.77;100.00;101500.38;5039441;28;20254;-53
2022/10/29 00:31:56;;;;;;;11.98;5.15;;;;;;;16.72;100.00;101497.75;5044462;28;20311;-53
2022/10/29 00:34:23;;;;;;;8.00;3.95;;;;;;;16.73;100.00;101503.94;5044412;28;20252;-52
2022/10/29 00:36:49;;;;;;;4.55;3.25;;;;;;;16.72;100.00;101512.78;5051654;28;20232;-54
2022/10/29 00:39:17;;;;;;;6.03;3.50;;;;;;;16.76;100.00;101525.16;5035158;28;20672;-52
2022/10/29 00:41:43;;;;;;;7.93;4.25;;;;;;;16.84;100.00;101528.56;5043658;28;20231;-52
2022/10/29 00:44:26;;;;;;;6.80;4.15;;;;;;;16.79;100.00;101546.31;5042919;28;20662;-52
2022/10/29 00:46:59;;;;;;;13.80;6.13;;;;;;;16.76;100.00;101538.41;5050623;28;20306;-52
2022/10/29 00:49:26;;;;;;;9.23;4.10;;;;;;;16.66;100.00;101534.97;5044263;28;20231;-52
2022/10/29 00:51:53;;;;;;;10.38;4.18;;;;;;;16.60;100.00;101527.97;5033020;28;20266;-53
2022/10/29 00:54:20;;;;;;;6.15;4.03;;;;;;;16.58;100.00;101524.47;5053558;28;20318;-52
2022/10/29 00:56:50;;;;;;;9.25;5.13;;;;;;;16.55;100.00;101537.75;5049172;28;20574;-53
2022/10/29 00:59:17;;;;;;;18.33;4.25;;;;;;;16.58;100.00;101529.75;5040927;28;20243;-52
2022/10/29 01:01:45;;;;;;;8.70;4.00;;;;;;;16.53;100.00;101513.06;5039294;28;20718;-52
2022/10/29 01:04:13;;;;;;;8.13;4.43;;;;;;;16.52;100.00;101513.06;5028999;28;20236;-53
2022/10/29 01:06:42;;;;;;;8.10;4.30;;;;;;;16.49;100.00;101508.66;5034927;28;20579;-53
2022/10/29 01:09:09;;;;;;;11.48;4.32;;;;;;;16.51;100.00;101513.97;5029313;28;20280;-53
2022/10/29 01:11:42;;;;;;;9.20;4.13;;;;;;;16.61;100.00;101521.78;5036093;28;20255;-53
2022/10/29 01:14:16;;;;;;;10.70;4.70;;;;;;;16.50;100.00;101522.78;5035551;28;20228;-52
2022/10/29 01:16:49;;;;;;;13.50;3.85;;;;;;;16.44;100.00;101523.75;5038132;28;20238;-54
2022/10/29 01:19:30;;;;;;;10.93;3.95;;;;;;;16.41;100.00;101526.44;5041192;28;20428;-51
2022/10/29 01:22:01;;;;;;;8.57;5.32;;;;;;;16.32;100.00;101524.81;5039369;28;20678;-52
2022/10/29 01:24:52;;;;;;;10.07;5.72;;;;;;;16.35;100.00;101516.78;5036668;28;20332;-53
2022/10/29 01:27:43;;;;;;;12.73;4.63;;;;;;;16.33;100.00;101515.06;5030106;28;20229;-52
2022/10/29 01:30:19;;;;;;;7.10;5.25;;;;;;;16.25;100.00;101522.22;5031475;28;20311;-53
2022/10/29 01:32:54;;;;;;;7.30;4.65;;;;;;;16.31;100.00;101523.03;5037378;28;20232;-53
2022/10/29 01:35:27;;;;;;;9.38;4.50;;;;;;;16.26;100.00;101516.91;5033944;28;20231;-53
2022/10/29 01:38:04;;;;;;;6.60;3.95;;;;;;;16.21;100.00;101516.94;5038654;28;20347;-54
2022/10/29 01:40:34;;;;;;;12.73;4.93;;;;;;;16.18;100.00;101519.66;5033609;28;20239;-53
2022/10/29 01:43:05;;;;;;;11.50;4.35;;;;;;;16.12;100.00;101529.44;5036844;28;20778;-53
2022/10/29 01:45:36;;;;;;;5.63;3.38;;;;;;;16.11;100.00;101525.03;5033764;28;20263;-52
2022/10/29 01:48:07;;;;;;;9.10;4.60;;;;;;;16.06;100.00;101527.72;5035391;28;20234;-52
2022/10/29 01:50:35;;;;;;;12.40;4.50;;;;;;;16.04;100.00;101523.34;5035508;28;20236;-52
2022/10/29 01:53:04;;;;;;;10.65;5.05;;;;;;;16.02;100.00;101531.31;5033847;28;20243;-53
2022/10/29 01:55:34;;;;;;;6.95;4.15;;;;;;;15.97;100.00;101538.44;5040193;28;20228;-53
2022/10/29 01:58:01;;;;;;;16.50;4.60;;;;;;;15.95;100.00;101535.78;5035901;28;20231;-56
2022/10/29 02:00:31;;;;;;;9.77;4.82;;;;;;;15.93;100.00;101536.69;5038623;28;20823;-52
2022/10/29 02:03:09;;;;;;;11.40;5.03;;;;;;;15.92;100.00;101540.25;5034092;28;20875;-52
2022/10/29 02:05:40;;;;;;;4.72;4.22;;;;;;;15.92;100.00;101545.53;5033251;28;20242;-54
2022/10/29 02:08:18;;;;;;;7.97;4.97;;;;;;;15.88;100.00;101546.47;5029725;28;20845;-52
2022/10/29 02:10:50;;;;;;;8.23;4.32;;;;;;;15.86;100.00;101545.59;5026316;28;20286;-52
2022/10/29 02:13:19;;;;;;;10.70;4.38;;;;;;;15.82;100.00;101543.88;5039883;28;20239;-52
2022/10/29 02:15:48;;;;;;;8.95;5.28;;;;;;;15.81;100.00;101539.47;5033938;28;20232;-52
2022/10/29 02:18:16;;;;;;;11.45;6.05;;;;;;;15.78;100.00;101553.63;5038522;28;20263;-53
2022/10/29 02:20:45;;;;;;;6.00;4.07;;;;;;;15.77;100.00;101551.00;5036094;28;20977;-52
2022/10/29 02:23:12;;;;;;;6.15;4.55;;;;;;;15.78;100.00;101558.03;5042614;28;20239;-54
2022/10/29 02:25:39;;;;;;;9.48;4.75;;;;;;;15.79;100.00;101562.44;5039940;28;20240;-54
2022/10/29 02:28:06;;;;;;;9.95;4.80;;;;;;;15.75;100.00;101565.09;5046781;28;20313;-53
2022/10/29 02:30:33;;;;;;;8.30;4.88;;;;;;;15.73;100.00;101566.91;5029035;28;20603;-53
2022/10/29 02:32:59;;;;;;;7.43;4.22;;;;;;;15.71;100.00;101568.69;5038427;28;20232;-52
2022/10/29 02:35:28;;;;;;;6.88;4.57;;;;;;;15.72;100.00;101567.81;5034139;28;20853;-53
2022/10/29 02:37:54;;;;;;;10.02;4.13;;;;;;;15.72;100.00;101575.75;5035844;28;20252;-53
2022/10/29 02:40:21;;;;;;;9.15;5.22;;;;;;;15.70;100.00;101569.59;5037082;28;20231;-53
2022/10/29 02:42:48;;;;;;;8.35;5.82;;;;;;;15.65;100.00;101579.28;5036500;28;20235;-52
2022/10/29 02:45:15;;;;;;;10.02;5.05;;;;;;;15.66;100.00;101578.44;5037062;28;20242;-53
2022/10/29 02:47:41;;;;;;;10.45;4.82;;;;;;;15.64;100.00;101566.06;5049240;28;20289;-53
2022/10/29 02:50:09;;;;;;;11.02;5.57;;;;;;;15.65;100.00;101568.69;5032905;28;20239;-53
2022/10/29 02:52:37;;;;;;;7.15;4.65;;;;;;;15.63;100.00;101578.44;5039818;28;20237;-52
2022/10/29 02:55:05;;;;;;;6.53;5.57;;;;;;;15.60;100.00;101585.53;5040112;28;20231;-53
2022/10/29 02:57:32;;;;;;;7.53;5.00;;;;;;;15.61;100.00;101577.56;5035184;28;20232;-52
2022/10/29 02:59:59;;;;;;;13.30;5.70;;;;;;;15.65;100.00;101576.63;5032969;28;20235;-53
2022/10/29 03:02:25;;;;;;;10.10;5.70;;;;;;;15.64;100.00;101566.06;5045263;28;20239;-52
2022/10/29 03:04:52;;;;;;;13.13;5.32;;;;;;;15.65;100.00;101567.81;5038029;28;20227;-52
2022/10/29 03:07:19;;;;;;;10.70;5.25;;;;;;;15.63;100.00;101573.13;5034101;28;20326;-53
2022/10/29 03:09:47;;;;;;;8.43;5.82;;;;;;;15.63;100.00;101566.97;5038610;28;20235;-52
2022/10/29 03:12:14;;;;;;;13.88;4.90;;;;;;;15.60;100.00;101570.50;5029157;28;20241;-53
2022/10/29 03:14:41;;;;;;;7.97;4.93;;;;;;;15.58;100.00;101571.41;5032881;28;20260;-52
2022/10/29 03:17:07;;;;;;;8.85;5.72;;;;;;;15.57;100.00;101578.47;5039737;28;20223;-52
2022/10/29 03:19:34;;;;;;;13.35;5.85;;;;;;;15.53;100.00;101574.09;5034196;28;20251;-52
2022/10/29 03:22:00;;;;;;;7.88;4.63;;;;;;;15.53;100.00;101571.47;5024012;28;20635;-54
2022/10/29 03:24:27;;;;;;;14.23;6.50;;;;;;;15.50;100.00;101563.53;5039524;28;20880;-52
2022/10/29 03:26:55;;;;;;;8.25;5.10;;;;;;;15.51;100.00;101567.94;5043432;28;20338;-54
2022/10/29 03:29:22;;;;;;;8.75;5.00;;;;;;;15.48;100.00;101574.16;5042329;28;20762;-53
2022/10/29 03:31:49;;;;;;;10.68;5.28;;;;;;;15.48;100.00;101566.22;5038214;28;20235;-53
2022/10/29 03:34:16;;;;;;;7.72;4.80;;;;;;;15.48;100.00;101579.44;5037204;28;20240;-53
2022/10/29 03:36:43;;;;;;;7.78;5.03;;;;;;;15.46;100.00;101580.34;5035412;28;20242;-52
2022/10/29 03:39:09;;;;;;;9.85;5.43;;;;;;;15.45;100.00;101582.09;5030808;28;20228;-53
2022/10/29 03:41:36;;;;;;;7.22;5.30;;;;;;;15.43;100.00;101580.34;5039751;28;20375;-51
2022/10/29 03:44:04;;;;;;;7.15;5.18;;;;;;;15.42;100.00;101581.25;5040311;28;20231;-52
2022/10/29 03:46:31;;;;;;;9.75;5.13;;;;;;;15.40;100.00;101585.66;5041073;28;20232;-53
2022/10/29 03:48:58;;;;;;;10.52;5.00;;;;;;;15.38;100.00;101585.69;5039882;28;21159;-53
2022/10/29 03:51:25;;;;;;;7.93;5.13;;;;;;;15.39;100.00;101587.44;5039390;28;20929;-53
2022/10/29 03:53:52;;;;;;;10.15;5.53;;;;;;;15.37;100.00;101589.19;5046037;28;20476;-53
2022/10/29 03:56:19;;;;;;;5.97;5.03;;;;;;;15.39;100.00;101584.78;5041635;28;20235;-53
2022/10/29 03:58:45;;;;;;;7.38;4.90;;;;;;;15.36;100.00;101587.44;5037065;28;20237;-53
2022/10/29 04:01:13;;;;;;;13.57;6.32;;;;;;;15.32;100.00;101585.72;5034992;28;20228;-52
2022/10/29 04:03:41;;;;;;;12.00;6.00;;;;;;;15.28;100.00;101592.81;5042068;28;20246;-52
2022/10/29 04:06:12;;;;;;;11.52;6.15;;;;;;;15.35;100.00;101600.72;5042791;28;20290;-52
2022/10/29 04:08:38;;;;;;;7.38;5.65;;;;;;;15.43;100.00;101604.16;5027989;28;20310;-52
2022/10/29 04:11:06;;;;;;;14.85;6.53;;;;;;;15.46;100.00;101601.50;5042804;28;20236;-52
2022/10/29 04:13:33;;;;;;;9.98;7.13;;;;;;;15.40;100.00;101596.25;5037231;28;20319;-52
2022/10/29 04:16:00;;;;;;;6.22;5.47;;;;;;;15.35;100.00;101606.88;5038349;28;20316;-52
2022/10/29 04:18:28;;;;;;;11.70;4.97;;;;;;;15.34;100.00;101596.28;5037240;28;20320;-54
2022/10/29 04:20:59;;;;;;;9.73;6.47;;;;;;;15.32;100.00;101606.03;5036464;28;20326;-53
2022/10/29 04:23:26;;;;;;;11.85;5.82;;;;;;;15.26;100.00;101597.22;5039929;28;20236;-52
2022/10/29 04:25:56;;;;;;;8.77;5.95;;;;;;;15.30;100.00;101599.84;5039791;28;20701;-57
2022/10/29 04:28:23;;;;;;;11.82;5.15;;;;;;;15.28;100.00;101595.44;5046621;28;20238;-52
2022/10/29 04:30:50;;;;;;;9.25;5.57;;;;;;;15.28;100.00;101598.09;5041226;28;20224;-53
2022/10/29 04:33:17;;;;;;;12.57;5.85;;;;;;;15.32;100.00;101595.44;5044294;28;20312;-51
2022/10/29 04:35:51;;;;;;;19.88;6.80;;;;;;;15.25;100.00;101592.81;5036216;28;20335;-52
2022/10/29 04:38:18;;;;;;;11.95;6.20;;;;;;;15.30;100.00;101586.63;5029303;28;20278;-52
2022/10/29 04:40:45;;;;;;;10.65;6.03;;;;;;;15.27;100.00;101584.91;5037973;28;20239;-52
2022/10/29 04:43:11;;;;;;;15.73;6.07;;;;;;;15.22;100.00;101579.59;5036437;28;20866;-53
2022/10/29 04:45:38;;;;;;;10.63;5.78;;;;;;;15.23;100.00;101580.47;5024531;28;20242;-53
2022/10/29 04:48:06;;;;;;;13.50;6.30;;;;;;;15.25;100.00;101571.66;5021042;28;20236;-53
2022/10/29 04:50:33;;;;;;;9.77;5.95;;;;;;;15.31;100.00;101569.88;5029118;28;20251;-52
2022/10/29 04:53:02;;;;;;;7.50;5.85;;;;;;;15.22;100.00;101562.88;5043878;28;20311;-54
2022/10/29 04:55:29;;;;;;;9.95;6.15;;;;;;;15.22;100.00;101584.91;5037106;28;20309;-52
2022/10/29 04:57:56;;;;;;;15.18;6.82;;;;;;;15.23;100.00;101599.00;5032351;28;20828;-53
2022/10/29 05:00:23;;;;;;;7.30;5.10;;;;;;;15.28;100.00;101598.09;5033026;28;20246;-52
2022/10/29 05:02:51;;;;;;;16.55;6.00;;;;;;;15.19;100.00;101606.06;5029547;28;20228;-52
2022/10/29 05:05:19;;;;;;;11.05;6.38;;;;;;;15.23;100.00;101604.28;5023403;28;20248;-53
2022/10/29 05:07:47;;;;;;;13.55;6.70;;;;;;;15.21;100.00;101604.31;5039711;28;20243;-53
2022/10/29 05:10:15;;;;;;;10.63;7.03;;;;;;;15.26;100.00;101607.78;5040780;28;20315;-53
2022/10/29 05:12:42;;;;;;;12.50;5.82;;;;;;;15.33;100.00;101607.75;5035854;28;20237;-52
2022/10/29 05:15:09;;;;;;;13.40;7.32;;;;;;;15.30;100.00;101610.44;5038278;28;20219;-52
2022/10/29 05:17:36;;;;;;;12.95;6.95;;;;;;;15.21;100.00;101620.19;5039101;28;20244;-52
2022/10/29 05:20:04;;;;;;;17.88;6.80;;;;;;;15.23;100.00;101612.22;5024503;28;20228;-52
2022/10/29 05:22:31;;;;;;;9.93;5.82;;;;;;;15.15;100.00;101616.69;5038952;28;20769;-52
2022/10/29 05:25:00;;;;;;;9.77;5.75;;;;;;;15.18;100.00;101614.03;5036897;28;20722;-52
2022/10/29 05:27:29;;;;;;;9.73;5.93;;;;;;;15.15;100.00;101614.94;5034548;28;20768;-54
2022/10/29 05:29:56;;;;;;;9.15;7.38;;;;;;;15.15;100.00;101622.88;5038290;28;20263;-54
2022/10/29 05:32:22;;;;;;;8.73;5.25;;;;;;;15.15;100.00;101619.34;5039475;28;20232;-51
2022/10/29 05:34:49;;;;;;;17.23;6.65;;;;;;;15.12;100.00;101620.22;5039210;28;20232;-53
2022/10/29 05:37:16;;;;;;;9.63;6.43;;;;;;;15.12;100.00;101617.59;5029507;28;20310;-52
2022/10/29 05:39:43;;;;;;;11.13;6.30;;;;;;;15.09;100.00;101608.78;5035509;28;20796;-52
2022/10/29 05:42:09;;;;;;;11.43;7.63;;;;;;;15.04;100.00;101600.88;5032237;28;20235;-53
2022/10/29 05:44:38;;;;;;;13.10;7.07;;;;;;;15.12;100.00;101599.06;5029646;28;20300;-53
2022/10/29 05:47:06;;;;;;;10.30;6.72;;;;;;;15.08;100.00;101599.97;5034450;28;20247;-52
2022/10/29 05:49:33;;;;;;;14.02;6.70;;;;;;;15.19;100.00;101590.22;5029670;28;20269;-52
2022/10/29 05:51:59;;;;;;;9.65;6.45;;;;;;;15.23;100.00;101591.97;5030313;28;20255;-52
2022/10/29 05:54:26;;;;;;;13.10;6.22;;;;;;;15.25;100.00;101590.19;5032349;28;20330;-52
2022/10/29 05:56:53;;;;;;;11.65;5.88;;;;;;;15.17;100.00;101586.72;5033996;28;20231;-52
2022/10/29 05:59:20;;;;;;;15.20;6.82;;;;;;;15.02;100.00;101595.63;5031726;28;20243;-52
2022/10/29 06:01:48;;;;;;;10.60;6.55;;;;;;;15.01;100.00;101600.91;5033030;28;20268;-54
2022/10/29 06:04:15;;;;;;;12.80;6.85;;;;;;;14.93;100.00;101605.38;5041541;28;20244;-52
2022/10/29 06:06:41;;;;;;;11.25;5.63;;;;;;;14.91;100.00;101609.78;5034485;28;20267;-54
2022/10/29 06:09:08;;;;;;;10.60;7.10;;;;;;;15.00;100.00;101605.31;5035578;28;20275;-53
2022/10/29 06:11:35;;;;;;;9.77;6.47;;;;;;;14.93;100.00;101613.28;5029895;28;20237;-53
2022/10/29 06:14:02;;;;;;;9.73;5.50;;;;;;;14.92;100.00;101616.84;5037205;28;20239;-53
2022/10/29 06:16:29;;;;;;;12.07;6.35;;;;;;;14.87;100.00;101613.31;5041246;28;20322;-53
2022/10/29 06:18:57;;;;;;;8.40;5.75;;;;;;;14.86;100.00;101611.56;5034536;28;20308;-53
2022/10/29 06:21:23;;;;;;;11.23;6.65;;;;;;;14.83;100.00;101607.16;5033986;28;20248;-53
2022/10/29 06:23:54;;;;;;;11.43;6.22;;;;;;;14.84;100.00;101608.91;5035349;28;20232;-53
2022/10/29 06:26:21;;;;;;;13.23;6.50;;;;;;;14.85;100.00;101615.06;5031984;28;20235;-53
2022/10/29 06:28:48;;;;;;;7.03;6.18;;;;;;;14.91;100.00;101625.63;5011650;28;20252;-51
2022/10/29 06:31:15;;;;;;;11.40;6.95;;;;;;;14.84;100.00;101629.19;5038812;28;20335;-52
2022/10/29 06:33:41;;;;;;;9.70;6.70;;;;;;;14.89;100.00;101627.41;5034108;28;20242;-51
2022/10/29 06:36:10;;;;;;;14.07;8.00;;;;;;;14.83;100.00;101638.88;5036045;28;20285;-52
2022/10/29 06:38:36;;;;;;;10.45;6.43;;;;;;;14.79;100.00;101637.16;5035127;28;20232;-52
2022/10/29 06:41:03;;;;;;;9.82;6.60;;;;;;;14.91;100.00;101633.56;5046190;28;20235;-51
2022/10/29 06:43:30;;;;;;;12.35;7.05;;;;;;;14.97;100.00;101641.47;5051325;28;20432;-54
2022/10/29 06:45:56;;;;;;;8.45;5.93;;;;;;;14.90;100.00;101635.34;5062253;28;20973;-52
2022/10/29 06:48:23;;;;;;;10.68;6.35;;;;;;;14.90;100.00;101637.09;5046429;28;20234;-52
2022/10/29 06:50:50;;;;;;;17.08;6.63;;;;;;;14.96;100.00;101634.44;5033698;28;20332;-52
2022/10/29 06:53:18;;;;;;;10.48;6.95;;;;;;;14.97;100.00;101639.72;5032876;28;20322;-53
2022/10/29 06:55:45;;;;;;;11.60;5.88;;;;;;;14.95;100.00;101640.59;5034663;28;21191;-52
2022/10/29 06:58:13;;;;;;;12.43;5.78;;;;;;;14.97;100.00;101644.13;5036670;28;20231;-52
2022/10/29 07:00:41;;;;;;;13.23;5.75;;;;;;;14.93;100.00;101645.91;5028900;28;20864;-53
2022/10/29 07:03:09;;;;;;;12.77;6.80;;;;;;;14.94;100.00;101641.50;5040504;28;20224;-52
2022/10/29 07:05:36;;;;;;;10.15;6.68;;;;;;;15.01;100.00;101649.38;5039324;28;20232;-52
2022/10/29 07:08:02;;;;;;;12.48;7.10;;;;;;;15.10;100.00;101648.47;5045730;28;20224;-54
2022/10/29 07:10:31;;;;;;;12.30;7.70;;;;;;;15.06;100.00;101646.75;5044825;28;20285;-53
2022/10/29 07:12:59;;;;;;;17.80;6.10;;;;;;;15.05;100.00;101639.66;5041987;28;20235;-53
2022/10/29 07:15:25;;;;;;;12.45;6.32;;;;;;;15.08;100.00;101639.66;5045816;28;20232;-54
2022/10/29 07:17:56;;;;;;;14.98;7.93;;;;;;;15.11;100.00;101647.56;5026253;28;20224;-53
2022/10/29 07:20:23;;;;;;;13.27;6.90;;;;;;;15.08;100.00;101654.66;5037334;28;20708;-53
2022/10/29 07:22:50;;;;;;;13.13;6.47;;;;;;;15.09;100.00;101659.91;5046938;28;20231;-52
2022/10/29 07:25:17;;;;;;;12.02;6.60;;;;;;;15.09;100.00;101661.69;5044941;28;20290;-51
2022/10/29 07:27:45;;;;;;;10.45;5.95;;;;;;;15.18;100.00;101659.88;5037168;28;20776;-53
2022/10/29 07:30:12;;;;;;;11.40;6.25;;;;;;;15.17;100.00;101666.06;5041760;28;20753;-51
2022/10/29 07:32:38;;;;;;;9.10;6.72;;;;;;;15.19;100.00;101671.34;5036524;28;20678;-53
2022/10/29 07:35:06;;;;;;;10.73;6.40;;;;;;;15.22;100.00;101679.25;5032577;28;20235;-53
2022/10/29 07:37:33;;;;;;;12.25;7.45;;;;;;;15.17;100.00;101679.31;5041085;28;20224;-52
2022/10/29 07:39:59;;;;;;;7.90;5.80;;;;;;;15.19;100.00;101681.91;5040555;28;20663;-53
2022/10/29 07:42:26;;;;;;;10.10;6.32;;;;;;;15.24;100.00;101681.03;5034395;28;20259;-54
2022/10/29 07:44:54;;;;;;;9.95;6.25;;;;;;;15.30;100.00;101681.88;5061195;28;20309;-52
2022/10/29 07:47:21;;;;;;;14.65;7.25;;;;;;;15.29;100.00;101681.00;5060566;28;20338;-54
2022/10/29 07:49:48;;;;;;;15.60;7.47;;;;;;;15.34;100.00;101678.31;5047556;28;20236;-52
2022/10/29 07:52:14;;;;;;;9.18;6.15;;;;;;;15.35;100.00;101669.50;5022956;28;20282;-52
2022/10/29 07:54:41;;;;;;;12.60;6.88;;;;;;;15.39;100.00;101690.63;5040575;28;20240;-53
2022/10/29 07:57:08;;;;;;;11.20;6.93;;;;;;;15.58;100.00;101694.03;5030955;28;20224;-53
2022/10/29 07:59:35;;;;;;;13.05;6.57;;;;;;;15.55;100.00;101694.09;5037861;28;20229;-53
2022/10/29 08:02:03;;;;;;;8.60;5.70;;;;;;;15.61;100.00;101683.44;5030362;28;20228;-52
2022/10/29 08:04:30;;;;;;;10.43;6.88;;;;;;;15.69;100.00;101681.69;5032831;28;20228;-52
2022/10/29 08:06:56;;;;;;;17.73;5.88;;;;;;;15.83;100.00;101683.31;5035212;28;20944;-55
2022/10/29 08:09:23;;;;;;;14.88;7.43;;;;;;;15.81;100.00;101680.69;5042257;28;20259;-53
2022/10/29 08:11:50;;;;;;;10.10;6.50;;;;;;;15.84;100.00;101678.03;5043027;28;20228;-54
2022/10/29 08:14:17;;;;;;;12.95;5.97;;;;;;;15.89;100.00;101683.28;5031889;28;20244;-51
2022/10/29 08:16:45;;;;;;;11.93;5.50;;;;;;;15.93;100.00;101690.31;5030511;28;20225;-53
2022/10/29 08:19:13;;;;;;;7.97;5.72;;;;;;;15.98;100.00;101693.81;5035790;28;20717;-53
2022/10/29 08:21:40;;;;;;;7.80;5.43;;;;;;;16.04;100.00;101698.16;5042620;28;20236;-52
2022/10/29 08:24:07;;;;;;;13.43;6.00;;;;;;;16.09;100.00;101691.94;5037915;28;20244;-52
2022/10/29 08:26:34;;;;;;;8.48;5.35;;;;;;;16.12;100.00;101691.94;5036187;28;20298;-54
2022/10/29 08:29:00;;;;;;;12.77;6.32;;;;;;;16.17;100.00;101689.22;5042612;28;20834;-53
2022/10/29 08:31:27;;;;;;;14.18;6.13;;;;;;;16.25;100.00;101690.06;5053658;28;20227;-52
2022/10/29 08:33:53;;;;;;;9.57;6.38;;;;;;;16.30;100.00;101690.88;5057665;28;20263;-53
2022/10/29 08:36:22;;;;;;;11.88;6.07;;;;;;;16.36;100.00;101689.97;5045111;28;20326;-53
2022/10/29 08:38:48;;;;;;;9.40;5.07;;;;;;;16.43;100.00;101687.22;5049679;28;20223;-53
2022/10/29 08:41:41;;;;;;;12.40;5.80;;;;;;;16.53;100.00;101697.72;5053968;28;20231;-53
2022/10/29 08:44:36;;;;;;;12.00;6.50;;;;;;;16.65;100.00;101693.19;5039763;28;20255;-53
2022/10/29 08:47:08;;;;;;;10.35;6.40;;;;;;;16.76;100.00;101700.19;5011336;28;20243;-52
2022/10/29 08:49:40;;;;;;;7.40;5.50;;;;;;;16.84;100.00;101693.00;5021635;28;20233;-52
2022/10/29 08:52:11;;;;;;;10.00;5.82;;;;;;;16.90;100.00;101699.13;5036942;28;20632;-53
2022/10/29 08:54:40;;;;;;;14.95;6.32;;;;;;;16.94;100.00;101690.22;5033643;28;20239;-54
2022/10/29 08:57:13;;;;;;;16.02;6.88;;;;;;;16.99;100.00;101703.44;5024268;28;20232;-52
2022/10/29 08:59:43;;;;;;;14.82;7.95;;;;;;;17.01;100.00;101698.13;5032244;28;20228;-54
2022/10/29 09:02:15;;;;;;;11.00;7.47;;;;;;;17.03;100.00;101699.84;5028430;28;20286;-54
2022/10/29 09:04:42;;;;;;;13.80;7.72;;;;;;;17.00;100.00;101693.72;5030655;28;20737;-52
2022/10/29 09:07:40;;;;;;;12.48;6.75;;;;;;;17.07;100.00;101698.91;5033138;28;20231;-54
2022/10/29 09:10:11;;;;;;;12.60;7.40;;;;;;;17.16;100.00;101701.47;5031180;28;20274;-54
2022/10/29 09:12:50;;;;;;;10.60;7.28;;;;;;;17.14;100.00;101703.25;5039999;28;20246;-53
2022/10/29 09:15:27;;;;;;;12.57;8.18;;;;;;;17.22;100.00;101702.28;5030514;28;20996;-54
2022/10/29 09:18:05;;;;;;;11.77;7.57;;;;;;;17.33;100.00;101703.00;5020099;28;20228;-53
2022/10/29 09:20:46;;;;;;;13.52;7.72;;;;;;;17.22;100.00;101704.94;5031853;28;20238;-52
2022/10/29 09:23:24;;;;;;;9.80;5.28;;;;;;;17.28;100.00;101715.47;5035529;28;20243;-52
2022/10/29 09:25:53;;;;;;;11.50;6.75;;;;;;;17.32;100.00;101718.06;5029594;28;20724;-52
2022/10/29 09:28:27;;;;;;;7.72;6.03;;;;;;;17.36;100.00;101714.47;5034247;28;20228;-53
2022/10/29 09:30:59;;;;;;;6.72;4.85;;;;;;;17.46;100.00;101720.53;5027625;28;20220;-52
2022/10/29 09:33:26;;;;;;;10.65;6.13;;;;;;;17.51;100.00;101718.69;5027576;28;20267;-53
2022/10/29 09:35:54;;;;;;;10.02;6.60;;;;;;;17.68;100.00;101715.78;5022928;28;20237;-53
2022/10/29 09:38:25;;;;;;;9.82;5.93;;;;;;;17.72;100.00;101719.28;5026837;28;20235;-53
2022/10/29 09:40:51;;;;;;;7.13;5.25;;;;;;;17.81;100.00;101705.91;5035870;28;20339;-53
2022/10/29 09:43:28;;;;;;;11.02;6.22;;;;;;;17.85;100.00;101708.47;5028815;28;20700;-53
2022/10/29 09:45:58;;;;;;;8.23;5.22;;;;;;;17.87;100.00;101700.50;5032383;28;20232;-52
2022/10/29 09:48:28;;;;;;;12.27;5.05;;;;;;;17.92;100.00;101701.28;5034621;28;20231;-52
2022/10/29 09:51:01;;;;;;;8.02;5.40;;;;;;;17.96;100.00;101702.97;5029667;28;20295;-52
2022/10/29 09:53:29;;;;;;;11.20;6.22;;;;;;;17.98;100.00;101706.50;5027886;28;20733;-55
2022/10/29 09:55:56;;;;;;;9.52;5.45;;;;;;;17.98;100.00;101698.53;5020382;28;20232;-53
2022/10/29 09:58:25;;;;;;;9.80;5.03;;;;;;;17.95;100.00;101685.28;5031312;28;20319;-53
2022/10/29 10:00:52;;;;;;;9.50;4.65;;;;;;;17.94;100.00;101685.34;5034539;28;20289;-52
2022/10/29 10:03:22;;;;;;;9.52;5.53;;;;;;;17.92;100.00;101685.34;5024639;28;20283;-53
2022/10/29 10:06:02;;;;;;;5.75;4.60;;;;;;;17.88;100.00;101686.31;5037124;28;20392;-53
2022/10/29 10:08:31;;;;;;;5.82;4.45;;;;;;;17.86;100.00;101686.31;5029860;28;20290;-53
2022/10/29 10:11:00;;;;;;;9.48;4.65;;;;;;;17.82;100.00;101681.94;5028699;28;20238;-54
2022/10/29 10:13:28;;;;;;;6.78;5.10;;;;;;;17.77;100.00;101686.47;5036551;28;20225;-53
2022/10/29 10:15:56;;;;;;;12.68;7.18;;;;;;;17.76;100.00;101676.75;5023535;28;20773;-52
2022/10/29 10:18:24;;;;;;;8.70;5.45;;;;;;;17.68;100.00;101683.03;5022607;28;20239;-52
2022/10/29 10:21:03;;;;;;;11.00;5.72;;;;;;;17.68;100.00;101689.22;5033949;28;20258;-52
2022/10/29 10:23:44;;;;;;;12.45;6.03;;;;;;;17.77;100.00;101680.28;5025468;28;20232;-52
2022/10/29 10:26:29;;;;;;;6.88;5.13;;;;;;;17.91;100.00;101674.75;5037280;28;20235;-53
2022/10/29 10:29:11;;;;;;;14.45;4.32;;;;;;;18.03;100.00;101659.47;5025675;28;20315;-53
2022/10/29 10:31:37;;;;;;;16.25;5.60;;;;;;;18.01;100.00;101653.31;5031910;28;20307;-53
2022/10/29 10:34:10;;;;;;;9.13;4.82;;;;;;;18.12;100.00;101651.34;5040779;28;20246;-53
2022/10/29 10:36:40;;;;;;;9.32;4.40;;;;;;;18.18;100.00;101641.50;5037004;28;20228;-53
2022/10/29 10:39:30;;;;;;;6.90;4.55;;;;;;;18.22;100.00;101653.84;5030092;28;20239;-53
2022/10/29 10:41:59;;;;;;;11.52;4.43;;;;;;;18.24;100.00;101652.91;5034644;28;20246;-53
2022/10/29 10:44:27;;;;;;;8.02;4.30;;;;;;;18.29;100.00;101651.03;5039335;28;20307;-53
2022/10/29 10:47:15;;;;;;;10.38;5.57;;;;;;;18.35;100.00;101658.00;5035833;28;20507;-54
2022/10/29 10:49:41;;;;;;;7.82;4.28;;;;;;;18.43;100.00;101668.50;5042623;28;20332;-54
2022/10/29 10:52:29;;;;;;;11.73;4.88;;;;;;;18.48;100.00;101671.97;5040300;28;20301;-52
2022/10/29 10:55:02;;;;;;;6.20;4.20;;;;;;;18.53;100.00;101659.44;5025991;28;20224;-53
2022/10/29 10:57:33;;;;;;;10.20;5.28;;;;;;;18.57;100.00;101671.81;5031157;28;20235;-52
2022/10/29 11:00:05;;;;;;;11.68;5.82;;;;;;;18.57;100.00;101666.50;5036519;28;20337;-52
2022/10/29 11:02:44;;;;;;;6.13;4.57;;;;;;;18.69;100.00;101665.38;5027359;28;20969;-52
2022/10/29 11:05:16;;;;;;;10.70;6.32;;;;;;;18.66;100.00;101665.41;5038228;28;20714;-53
2022/10/29 11:07:51;;;;;;;9.98;4.90;;;;;;;18.66;100.00;101660.97;5035318;28;20236;-53
2022/10/29 11:10:24;;;;;;;11.15;4.72;;;;;;;18.68;100.00;101652.97;5039935;28;20258;-52
2022/10/29 11:24:51;;;;;;;10.65;6.30;;;;;;;18.76;100.00;101627.13;5009598;28;20664;-52
2022/10/29 11:37:29;;;;;;;10.45;5.05;;;;;;;18.64;100.00;101617.59;4990460;28;20329;-52
2022/10/29 12:01:07;;;;;;;6.65;3.92;;;;;;;18.67;100.00;101592.69;4978720;28;20257;-55
2022/10/29 12:03:47;;;;;;;7.03;4.22;;;;;;;18.73;100.00;101592.59;4939098;28;20294;-54